createdAt,value
2018-10-11T00:02:11.123Z,12.22
2018-10-11T00:04:23.346Z,12.15
2018-10-11T00:06:35.594Z,12.09
2018-10-11T00:08:47.763Z,12.09
2018-10-11T00:11:00.007Z,12.05
2018-10-11T00:13:12.267Z,12.04
2018-10-11T00:17:36.126Z,12.01
2018-10-11T00:19:48.292Z,12.04
2018-10-11T00:22:00.485Z,12.08
2018-10-11T00:24:12.711Z,12.10
2018-10-11T00:26:24.918Z,12.06
2018-10-11T00:28:37.136Z,12.07
2018-10-11T00:30:49.356Z,12.06
2018-10-11T00:33:01.563Z,12.09
2018-10-11T00:35:13.810Z,12.08
2018-10-11T00:37:26.032Z,12.09
2018-10-11T00:39:38.250Z,12.09
2018-10-11T00:41:50.447Z,12.15
2018-10-11T00:44:02.702Z,12.15
2018-10-11T00:46:14.894Z,12.12
2018-10-11T00:48:27.139Z,12.10
2018-10-11T00:50:39.347Z,12.11
2018-10-11T00:52:51.523Z,12.05
2018-10-11T00:55:03.858Z,12.00
2018-10-11T00:57:16.056Z,11.95
2018-10-11T00:59:28.255Z,11.88
2018-10-11T01:01:41.015Z,11.88
2018-10-11T01:03:53.198Z,11.85
2018-10-11T01:06:05.472Z,11.79
2018-10-11T01:08:17.671Z,11.74
2018-10-11T01:10:29.865Z,11.72
2018-10-11T01:12:42.033Z,11.67
2018-10-11T01:14:54.264Z,11.66
2018-10-11T01:17:06.520Z,11.65
2018-10-11T01:19:18.797Z,11.61
2018-10-11T01:21:30.975Z,11.66
2018-10-11T01:23:43.261Z,11.88
2018-10-11T01:25:55.496Z,12.08
2018-10-11T01:28:07.739Z,12.31
2018-10-11T01:30:19.926Z,12.51
2018-10-11T01:32:32.128Z,12.65
2018-10-11T01:34:44.351Z,12.75
2018-10-11T01:36:56.554Z,12.87
2018-10-11T01:39:08.751Z,12.88
2018-10-11T01:41:21.295Z,12.72
2018-10-11T01:43:33.490Z,12.62
2018-10-11T01:45:45.748Z,12.56
2018-10-11T01:47:58.322Z,12.57
2018-10-11T01:50:10.524Z,12.68
2018-10-11T01:52:22.763Z,12.89
2018-10-11T01:54:34.957Z,13.04
2018-10-11T01:56:47.261Z,13.18
2018-10-11T01:58:59.464Z,13.30
2018-10-11T02:01:11.679Z,13.35
2018-10-11T02:03:23.879Z,13.43
2018-10-11T02:05:36.079Z,13.49
2018-10-11T02:07:48.331Z,13.57
2018-10-11T02:10:00.545Z,13.53
2018-10-11T02:12:12.753Z,13.31
2018-10-11T02:14:24.938Z,13.14
2018-10-11T02:16:37.123Z,13.02
2018-10-11T02:18:49.322Z,12.94
2018-10-11T02:21:01.525Z,12.98
2018-10-11T02:23:13.718Z,12.96
2018-10-11T02:25:26.035Z,12.94
2018-10-11T02:27:38.458Z,12.94
2018-10-11T02:29:50.714Z,12.93
2018-10-11T02:32:02.952Z,12.85
2018-10-11T02:34:15.088Z,12.72
2018-10-11T02:36:27.268Z,12.65
2018-10-11T02:38:39.515Z,12.65
2018-10-11T02:40:51.723Z,12.65
2018-10-11T02:43:03.911Z,12.68
2018-10-11T02:45:16.140Z,12.63
2018-10-11T02:47:28.316Z,12.53
2018-10-11T02:49:41.142Z,12.40
2018-10-11T02:51:53.346Z,12.29
2018-10-11T02:54:05.994Z,12.16
2018-10-11T02:56:19.259Z,12.07
2018-10-11T02:58:43.004Z,12.06
2018-10-11T03:00:55.279Z,12.03
2018-10-11T03:03:09.614Z,11.99
2018-10-11T03:05:21.851Z,11.94
2018-10-11T03:07:34.056Z,11.94
2018-10-11T03:09:47.099Z,11.92
2018-10-11T03:11:59.290Z,11.91
2018-10-11T03:14:11.471Z,11.83
2018-10-11T03:16:23.715Z,11.72
2018-10-11T03:18:35.955Z,11.70
2018-10-11T03:20:48.203Z,11.70
2018-10-11T03:23:00.411Z,11.71
2018-10-11T03:25:12.609Z,11.74
2018-10-11T03:27:24.811Z,11.78
2018-10-11T03:29:37.027Z,11.68
2018-10-11T03:31:49.190Z,11.60
2018-10-11T03:34:01.421Z,11.53
2018-10-11T03:36:13.607Z,11.52
2018-10-11T03:38:25.834Z,11.49
2018-10-11T03:40:38.016Z,11.46
2018-10-11T03:42:50.243Z,11.42
2018-10-11T03:45:02.484Z,11.41
2018-10-11T03:47:14.709Z,11.40
2018-10-11T03:49:26.902Z,11.40
2018-10-11T03:51:39.292Z,11.41
2018-10-11T03:53:51.526Z,11.38
2018-10-11T03:56:03.710Z,11.38
2018-10-11T03:58:15.908Z,11.37
2018-10-11T04:00:28.099Z,11.37
2018-10-11T04:02:40.379Z,11.33
2018-10-11T04:04:52.628Z,11.31
2018-10-11T04:07:04.843Z,11.33
2018-10-11T04:09:17.089Z,11.31
2018-10-11T04:11:29.278Z,11.26
2018-10-11T04:13:41.828Z,11.16
2018-10-11T04:15:54.063Z,11.12
2018-10-11T04:18:06.437Z,11.11
2018-10-11T04:20:18.645Z,11.10
2018-10-11T04:22:30.846Z,11.05
2018-10-11T04:24:43.046Z,11.04
2018-10-11T04:26:55.270Z,10.99
2018-10-11T04:29:07.528Z,10.92
2018-10-11T04:31:19.756Z,10.86
2018-10-11T04:33:31.947Z,10.84
2018-10-11T04:35:44.168Z,10.83
2018-10-11T04:37:56.352Z,10.76
2018-10-11T04:40:08.671Z,10.77
2018-10-11T04:42:20.886Z,10.82
2018-10-11T04:44:34.635Z,10.79
2018-10-11T04:46:46.893Z,10.75
2018-10-11T04:48:59.104Z,10.71
2018-10-11T04:51:11.350Z,10.69
2018-10-11T04:53:23.601Z,10.72
2018-10-11T04:55:35.830Z,10.78
2018-10-11T04:57:47.982Z,10.84
2018-10-11T05:00:00.226Z,10.87
2018-10-11T05:02:12.437Z,10.80
2018-10-11T05:04:24.676Z,10.77
2018-10-11T05:06:36.935Z,10.73
2018-10-11T05:08:49.175Z,10.77
2018-10-11T05:11:01.424Z,10.76
2018-10-11T05:13:14.136Z,10.74
2018-10-11T05:15:27.167Z,10.71
2018-10-11T05:17:39.940Z,10.67
2018-10-11T05:19:52.108Z,10.64
2018-10-11T05:22:04.348Z,10.59
2018-10-11T05:24:16.540Z,10.64
2018-10-11T05:26:28.754Z,10.76
2018-10-11T05:28:41.374Z,10.78
2018-10-11T05:30:53.673Z,10.78
2018-10-11T05:33:06.248Z,10.81
2018-10-11T05:35:18.411Z,10.81
2018-10-11T05:37:30.631Z,10.73
2018-10-11T05:39:42.909Z,10.68
2018-10-11T05:41:55.195Z,10.68
2018-10-11T05:44:07.469Z,10.65
2018-10-11T05:46:35.717Z,10.61
2018-10-11T05:48:48.037Z,10.58
2018-10-11T05:51:01.436Z,10.60
2018-10-11T05:53:13.785Z,10.62
2018-10-11T05:55:25.972Z,10.66
2018-10-11T05:57:38.224Z,10.71
2018-10-11T05:59:50.590Z,10.75
2018-10-11T06:02:02.862Z,10.78
2018-10-11T06:04:15.172Z,10.81
2018-10-11T06:06:27.287Z,10.82
2018-10-11T06:08:39.603Z,10.84
2018-10-11T06:10:51.925Z,10.83
2018-10-11T06:13:05.164Z,10.81
2018-10-11T06:15:17.445Z,10.79
2018-10-11T06:17:29.695Z,10.81
2018-10-11T06:19:41.979Z,10.84
2018-10-11T06:21:54.366Z,10.84
2018-10-11T06:24:06.627Z,10.83
2018-10-11T06:26:18.929Z,10.84
2018-10-11T06:28:31.128Z,10.89
2018-10-11T06:30:43.434Z,10.89
2018-10-11T06:32:55.762Z,10.89
2018-10-11T06:35:08.056Z,10.89
2018-10-11T06:37:20.335Z,10.90
2018-10-11T06:39:32.660Z,10.91
2018-10-11T06:41:44.897Z,10.94
2018-10-11T06:43:58.102Z,11.02
2018-10-11T06:46:10.459Z,11.10
2018-10-11T06:48:22.760Z,11.17
2018-10-11T06:50:35.020Z,11.61
2018-10-11T06:52:47.263Z,12.04
2018-10-11T06:54:59.522Z,12.49
2018-10-11T06:57:11.736Z,12.83
2018-10-11T06:59:25.987Z,12.91
2018-10-11T07:01:38.261Z,13.07
2018-10-11T07:03:50.567Z,13.48
2018-10-11T07:06:02.770Z,13.92
2018-10-11T07:08:15.037Z,14.37
2018-10-11T07:10:27.235Z,14.80
2018-10-11T07:12:40.368Z,15.18
2018-10-11T07:14:52.591Z,15.47
2018-10-11T07:17:04.834Z,15.70
2018-10-11T07:19:23.108Z,15.97
2018-10-11T07:21:36.199Z,16.21
2018-10-11T07:23:48.467Z,16.37
2018-10-11T07:26:00.743Z,16.53
2018-10-11T07:28:12.888Z,16.72
2018-10-11T07:30:25.112Z,17.02
2018-10-11T07:32:37.362Z,17.40
2018-10-11T07:34:49.707Z,17.76
2018-10-11T07:37:01.844Z,17.99
2018-10-11T07:39:14.068Z,18.15
2018-10-11T07:41:26.262Z,18.28
2018-10-11T07:43:38.523Z,18.37
2018-10-11T07:45:50.793Z,18.53
2018-10-11T07:48:03.063Z,18.70
2018-10-11T07:50:15.255Z,18.98
2018-10-11T07:52:27.459Z,19.25
2018-10-11T07:54:39.678Z,19.48
2018-10-11T07:56:51.918Z,19.61
2018-10-11T07:59:04.151Z,19.58
2018-10-11T08:01:16.365Z,19.56
2018-10-11T08:03:28.605Z,19.67
2018-10-11T08:05:40.841Z,19.71
2018-10-11T08:07:53.047Z,19.75
2018-10-11T08:10:06.493Z,19.61
2018-10-11T08:12:18.681Z,19.57
2018-10-11T08:14:30.899Z,19.55
2018-10-11T08:16:43.162Z,19.44
2018-10-11T08:18:55.569Z,19.38
2018-10-11T08:21:11.695Z,19.41
2018-10-11T08:23:27.935Z,19.50
2018-10-11T08:25:40.429Z,19.43
2018-10-11T08:27:52.372Z,19.52
2018-10-11T08:30:04.958Z,19.60
2018-10-11T08:32:17.284Z,19.67
2018-10-11T08:34:29.487Z,19.74
2018-10-11T08:36:41.731Z,19.70
2018-10-11T08:38:53.988Z,19.65
2018-10-11T08:41:06.381Z,19.65
2018-10-11T08:43:18.730Z,19.79
2018-10-11T08:45:30.951Z,20.07
2018-10-11T08:47:43.151Z,20.35
2018-10-11T08:49:55.365Z,20.50
2018-10-11T08:52:07.632Z,20.62
2018-10-11T08:54:25.414Z,20.77
2018-10-11T08:56:37.623Z,20.86
2018-10-11T08:58:49.839Z,20.96
2018-10-11T09:01:02.111Z,21.00
2018-10-11T09:03:14.439Z,21.00
2018-10-11T09:05:26.608Z,21.01
2018-10-11T09:07:38.812Z,20.87
2018-10-11T09:09:53.685Z,20.81
2018-10-11T09:12:03.260Z,20.83
2018-10-11T09:14:15.508Z,20.89
2018-10-11T09:16:27.716Z,20.99
2018-10-11T09:18:39.984Z,21.09
2018-10-11T09:20:52.184Z,21.19
2018-10-11T09:23:04.683Z,21.27
2018-10-11T09:25:16.863Z,21.33
2018-10-11T09:27:29.114Z,21.44
2018-10-11T09:29:41.379Z,21.45
2018-10-11T09:31:53.627Z,21.48
2018-10-11T09:34:06.865Z,21.49
2018-10-11T09:36:19.096Z,21.56
2018-10-11T09:38:31.355Z,21.64
2018-10-11T09:40:43.591Z,21.75
2018-10-11T09:42:55.835Z,21.84
2018-10-11T09:45:08.031Z,21.83
2018-10-11T09:47:20.239Z,21.89
2018-10-11T09:49:32.494Z,21.97
2018-10-11T09:51:45.642Z,21.98
2018-10-11T09:53:57.862Z,22.01
2018-10-11T09:56:10.083Z,22.06
2018-10-11T09:58:22.313Z,22.13
2018-10-11T10:00:40.260Z,22.09
2018-10-11T10:02:52.745Z,22.13
2018-10-11T10:05:05.038Z,22.11
2018-10-11T10:07:17.250Z,22.02
2018-10-11T10:09:29.490Z,21.93
2018-10-11T10:11:41.691Z,21.93
2018-10-11T10:13:53.875Z,21.88
2018-10-11T10:16:06.092Z,21.81
2018-10-11T10:18:18.360Z,21.80
2018-10-11T10:20:34.293Z,21.96
2018-10-11T10:22:46.511Z,22.09
2018-10-11T10:24:58.710Z,22.15
2018-10-11T10:27:11.025Z,22.21
2018-10-11T10:29:23.173Z,22.34
2018-10-11T10:31:35.414Z,22.35
2018-10-11T10:33:47.619Z,22.36
2018-10-11T10:35:59.870Z,22.33
2018-10-11T10:38:12.079Z,22.30
2018-10-11T10:40:24.355Z,22.27
2018-10-11T10:42:40.355Z,22.21
2018-10-11T10:44:52.607Z,22.23
2018-10-11T10:47:04.875Z,22.31
2018-10-11T10:49:17.084Z,22.19
2018-10-11T10:51:29.476Z,22.11
2018-10-11T10:53:41.766Z,22.16
2018-10-11T10:55:53.979Z,22.11
2018-10-11T10:58:06.521Z,22.16
2018-10-11T11:00:18.805Z,22.20
2018-10-11T11:02:31.052Z,22.30
2018-10-11T11:04:43.268Z,22.40
2018-10-11T11:06:55.491Z,22.43
2018-10-11T11:09:09.967Z,22.49
2018-10-11T11:11:22.234Z,22.50
2018-10-11T11:13:34.646Z,22.51
2018-10-11T11:15:46.897Z,22.51
2018-10-11T11:17:59.114Z,22.50
2018-10-11T11:20:11.315Z,22.49
2018-10-11T11:22:23.540Z,22.52
2018-10-11T11:24:35.822Z,22.52
2018-10-11T11:26:48.111Z,22.50
2018-10-11T11:29:00.683Z,22.48
2018-10-11T11:31:12.972Z,22.45
2018-10-11T11:33:25.184Z,22.45
2018-10-11T11:35:37.431Z,22.45
2018-10-11T11:37:49.603Z,22.39
2018-10-11T11:40:01.876Z,22.37
2018-10-11T11:42:14.088Z,22.41
2018-10-11T11:44:26.265Z,22.40
2018-10-11T11:46:38.559Z,22.46
2018-10-11T11:48:54.837Z,22.48
2018-10-11T11:51:07.541Z,22.50
2018-10-11T11:53:19.747Z,22.46
2018-10-11T11:55:33.896Z,22.43
2018-10-11T11:57:46.126Z,22.40
2018-10-11T11:59:58.342Z,22.26
2018-10-11T12:02:10.677Z,22.25
2018-10-11T12:04:22.903Z,22.31
2018-10-11T12:06:35.170Z,22.34
2018-10-11T12:08:47.389Z,22.39
2018-10-11T12:10:59.827Z,22.43
2018-10-11T12:13:12.421Z,22.46
2018-10-11T12:15:25.919Z,22.47
2018-10-11T12:17:38.129Z,22.52
2018-10-11T12:19:50.366Z,22.51
2018-10-11T12:22:02.690Z,22.47
2018-10-11T12:24:14.871Z,22.43
2018-10-11T12:26:27.110Z,22.36
2018-10-11T12:28:39.399Z,22.29
2018-10-11T12:30:51.563Z,22.25
2018-10-11T12:33:03.819Z,22.25
2018-10-11T12:35:17.564Z,22.30
2018-10-11T12:37:29.794Z,22.32
2018-10-11T12:39:41.992Z,22.31
2018-10-11T12:41:54.228Z,22.32
2018-10-11T12:44:06.456Z,22.36
2018-10-11T12:46:20.545Z,22.38
2018-10-11T12:48:32.801Z,22.37
2018-10-11T12:50:45.063Z,22.37
2018-10-11T12:52:57.443Z,22.39
2018-10-11T12:55:09.892Z,22.39
2018-10-11T12:57:22.590Z,22.37
2018-10-11T12:59:34.765Z,22.37
2018-10-11T13:01:46.951Z,22.37
2018-10-11T13:03:59.159Z,22.27
2018-10-11T13:06:11.451Z,22.20
2018-10-11T13:08:24.516Z,22.14
2018-10-11T13:10:36.721Z,22.09
2018-10-11T13:12:48.986Z,22.02
2018-10-11T13:15:01.325Z,21.95
2018-10-11T13:17:13.465Z,21.96
2018-10-11T13:19:27.580Z,21.89
2018-10-11T13:21:39.847Z,21.90
2018-10-11T13:23:52.092Z,21.90
2018-10-11T13:26:04.320Z,21.94
2018-10-11T13:28:17.624Z,21.97
2018-10-11T13:30:29.926Z,22.06
2018-10-11T13:32:42.162Z,22.13
2018-10-11T13:34:58.345Z,22.19
2018-10-11T13:37:10.572Z,22.20
2018-10-11T13:39:22.820Z,22.23
2018-10-11T13:41:35.213Z,22.28
2018-10-11T13:43:47.331Z,22.23
2018-10-11T13:46:01.976Z,22.20
2018-10-11T13:48:11.828Z,22.17
2018-10-11T13:50:24.017Z,22.13
2018-10-11T13:52:36.280Z,22.09
2018-10-11T13:54:48.489Z,22.07
2018-10-11T13:57:02.894Z,22.06
2018-10-11T13:59:15.183Z,22.09
2018-10-11T14:01:25.643Z,22.08
2018-10-11T14:03:37.899Z,22.09
2018-10-11T14:05:50.145Z,22.12
2018-10-11T14:08:02.375Z,22.17
2018-10-11T14:10:14.711Z,22.21
2018-10-11T14:12:27.035Z,22.31
2018-10-11T14:14:39.251Z,22.32
2018-10-11T14:16:51.479Z,22.35
2018-10-11T14:19:03.763Z,22.34
2018-10-11T14:21:16.028Z,22.33
2018-10-11T14:23:28.293Z,22.34
2018-10-11T14:25:40.544Z,22.35
2018-10-11T14:27:52.888Z,22.34
2018-10-11T14:30:05.137Z,22.35
2018-10-11T14:32:17.408Z,22.37
2018-10-11T14:34:29.644Z,22.36
2018-10-11T14:36:43.876Z,22.34
2018-10-11T14:38:58.063Z,22.33
2018-10-11T14:41:10.367Z,22.30
2018-10-11T14:43:22.652Z,22.28
2018-10-11T14:45:34.848Z,22.28
2018-10-11T14:47:47.089Z,22.28
2018-10-11T14:49:59.330Z,22.23
2018-10-11T14:52:11.596Z,22.21
2018-10-11T14:54:23.829Z,22.18
2018-10-11T14:56:36.063Z,22.15
2018-10-11T14:58:48.340Z,22.13
2018-10-11T15:01:00.596Z,22.13
2018-10-11T15:03:12.888Z,22.14
2018-10-11T15:05:25.107Z,22.14
2018-10-11T15:07:37.351Z,22.12
2018-10-11T15:09:49.622Z,22.12
2018-10-11T15:12:01.830Z,22.10
2018-10-11T15:14:14.039Z,22.08
2018-10-11T15:16:26.217Z,22.09
2018-10-11T15:18:38.467Z,22.09
2018-10-11T15:20:50.716Z,22.09
2018-10-11T15:23:03.014Z,22.08
2018-10-11T15:25:15.286Z,22.08
2018-10-11T15:27:27.539Z,22.06
2018-10-11T15:29:39.808Z,22.06
2018-10-11T15:31:52.062Z,22.03
2018-10-11T15:34:04.297Z,21.99
2018-10-11T15:36:16.547Z,21.96
2018-10-11T15:38:28.951Z,21.90
2018-10-11T15:40:41.230Z,21.85
2018-10-11T15:42:53.479Z,21.80
2018-10-11T15:45:07.111Z,21.71
2018-10-11T15:47:19.391Z,21.65
2018-10-11T15:49:31.664Z,21.58
2018-10-11T15:51:43.937Z,21.50
2018-10-11T15:53:56.193Z,21.46
2018-10-11T15:56:08.478Z,21.38
2018-10-11T15:58:20.753Z,21.34
2018-10-11T16:00:32.982Z,21.31
2018-10-11T16:02:45.275Z,21.22
2018-10-11T16:04:57.548Z,21.14
2018-10-11T16:07:09.836Z,21.04
2018-10-11T16:09:22.222Z,20.96
2018-10-11T16:11:34.431Z,20.89
2018-10-11T16:13:46.695Z,20.80
2018-10-11T16:15:58.931Z,20.70
2018-10-11T16:18:11.204Z,20.62
2018-10-11T16:20:23.402Z,20.53
2018-10-11T16:22:35.667Z,20.48
2018-10-11T16:24:48.185Z,20.44
2018-10-11T16:27:00.386Z,20.39
2018-10-11T16:29:13.570Z,20.31
2018-10-11T16:31:25.841Z,20.22
2018-10-11T16:33:38.116Z,20.12
2018-10-11T16:35:50.353Z,20.04
2018-10-11T16:38:02.612Z,20.00
2018-10-11T16:40:14.902Z,19.91
2018-10-11T16:42:27.183Z,19.82
2018-10-11T16:44:39.449Z,19.75
2018-10-11T16:46:51.659Z,19.68
2018-10-11T16:49:03.919Z,19.60
2018-10-11T16:51:16.162Z,19.55
2018-10-11T16:53:28.485Z,19.53
2018-10-11T16:55:41.685Z,19.48
2018-10-11T16:57:53.983Z,19.43
2018-10-11T17:00:06.358Z,19.33
2018-10-11T17:02:18.604Z,19.29
2018-10-11T17:04:30.895Z,19.24
2018-10-11T17:06:43.144Z,19.18
2018-10-11T17:08:55.356Z,19.12
2018-10-11T17:11:07.724Z,19.02
2018-10-11T17:13:19.951Z,18.97
2018-10-11T17:15:32.203Z,18.94
2018-10-11T17:17:44.443Z,18.89
2018-10-11T17:19:56.652Z,18.80
2018-10-11T17:22:10.861Z,18.76
2018-10-11T17:24:23.166Z,18.71
2018-10-11T17:26:35.444Z,18.60
2018-10-11T17:28:47.699Z,18.56
2018-10-11T17:30:59.931Z,18.54
2018-10-11T17:33:12.187Z,18.49
2018-10-11T17:35:24.403Z,18.41
2018-10-11T17:37:36.693Z,18.32
2018-10-11T17:39:48.952Z,18.24
2018-10-11T17:42:01.237Z,18.16
2018-10-11T17:44:13.433Z,18.18
2018-10-11T17:46:25.677Z,18.13
2018-10-11T17:48:38.182Z,18.16
2018-10-11T17:50:50.484Z,18.18
2018-10-11T17:53:02.710Z,18.18
2018-10-11T17:55:15.008Z,18.17
2018-10-11T17:57:27.369Z,18.18
2018-10-11T17:59:39.592Z,18.19
2018-10-11T18:01:51.908Z,18.21
2018-10-11T18:04:04.183Z,18.21
2018-10-11T18:06:16.497Z,18.22
2018-10-11T18:08:28.805Z,18.21
2018-10-11T18:10:41.014Z,18.18
2018-10-11T18:12:53.301Z,18.18
2018-10-11T18:15:06.016Z,18.16
2018-10-11T18:17:18.293Z,18.18
2018-10-11T18:19:30.604Z,18.19
2018-10-11T18:21:43.907Z,18.19
2018-10-11T18:23:56.170Z,18.17
2018-10-11T18:26:08.579Z,18.16
2018-10-11T18:28:20.820Z,18.15
2018-10-11T18:30:33.123Z,18.16
2018-10-11T18:32:45.356Z,18.13
2018-10-11T18:34:57.624Z,18.10
2018-10-11T18:37:09.786Z,18.02
2018-10-11T18:39:22.069Z,18.00
2018-10-11T18:41:34.426Z,18.02
2018-10-11T18:43:46.814Z,17.98
2018-10-11T18:45:59.101Z,17.98
2018-10-11T18:48:11.327Z,17.92
2018-10-11T18:50:23.631Z,17.88
2018-10-11T18:52:35.905Z,17.85
2018-10-11T18:54:48.293Z,17.82
2018-10-11T18:57:00.562Z,17.80
2018-10-11T18:59:12.768Z,17.80
2018-10-11T19:01:25.104Z,17.81
2018-10-11T19:03:44.292Z,17.81
2018-10-11T19:05:56.635Z,17.80
2018-10-11T19:08:08.963Z,17.78
2018-10-11T19:10:21.207Z,17.75
2018-10-11T19:12:33.521Z,17.76
2018-10-11T19:14:45.806Z,17.78
2018-10-11T19:16:58.136Z,17.83
2018-10-11T19:19:10.390Z,17.85
2018-10-11T19:21:22.720Z,17.86
2018-10-11T19:23:35.176Z,17.87
2018-10-11T19:25:48.419Z,17.86
2018-10-11T19:28:00.695Z,17.83
2018-10-11T19:30:12.973Z,17.88
2018-10-11T19:32:25.313Z,17.88
2018-10-11T19:34:37.603Z,17.86
2018-10-11T19:36:49.866Z,17.87
2018-10-11T19:39:02.251Z,17.87
2018-10-11T19:41:14.645Z,17.87
2018-10-11T19:43:26.942Z,17.89
2018-10-11T19:45:39.563Z,17.91
2018-10-11T19:47:51.820Z,17.93
2018-10-11T19:50:04.163Z,17.92
2018-10-11T19:52:16.455Z,17.97
2018-10-11T19:54:28.737Z,17.95
2018-10-11T19:56:41.018Z,17.95
2018-10-11T19:58:53.292Z,17.99
2018-10-11T20:01:05.529Z,17.97
2018-10-11T20:03:17.810Z,17.98
2018-10-11T20:05:30.188Z,17.95
2018-10-11T20:07:42.455Z,17.94
2018-10-11T20:09:54.767Z,17.94
2018-10-11T20:12:07.023Z,17.92
2018-10-11T20:14:19.316Z,17.89
2018-10-11T20:16:31.537Z,17.86
2018-10-11T20:18:43.791Z,17.83
2018-10-11T20:20:56.031Z,17.82
2018-10-11T20:23:08.207Z,17.80
2018-10-11T20:25:20.443Z,17.77
2018-10-11T20:27:32.647Z,17.71
2018-10-11T20:29:44.892Z,17.67
2018-10-11T20:31:57.164Z,17.63
2018-10-11T20:34:09.524Z,17.57
2018-10-11T20:36:21.814Z,17.47
2018-10-11T20:38:34.076Z,17.41
2018-10-11T20:40:46.280Z,17.33
2018-10-11T20:42:58.537Z,17.28
2018-10-11T20:45:10.822Z,17.22
2018-10-11T20:47:23.086Z,17.14
2018-10-11T20:49:35.316Z,17.10
2018-10-11T20:51:47.575Z,17.06
2018-10-11T20:53:59.811Z,17.03
2018-10-11T20:56:12.082Z,16.92
2018-10-11T20:58:24.318Z,16.83
2018-10-11T21:00:36.598Z,16.76
2018-10-11T21:02:48.803Z,16.68
2018-10-11T21:05:01.007Z,16.59
2018-10-11T21:07:13.264Z,16.49
2018-10-11T21:09:25.593Z,16.45
2018-10-11T21:11:37.870Z,16.40
2018-10-11T21:13:50.085Z,16.31
2018-10-11T21:16:02.284Z,16.30
2018-10-11T21:18:14.554Z,16.29
2018-10-11T21:20:26.964Z,16.27
2018-10-11T21:22:39.106Z,16.27
2018-10-11T21:24:51.358Z,16.21
2018-10-11T21:27:03.659Z,16.20
2018-10-11T21:29:15.936Z,16.20
2018-10-11T21:31:28.205Z,16.13
2018-10-11T21:33:40.465Z,16.04
2018-10-11T21:35:52.731Z,15.94
2018-10-11T21:38:05.449Z,15.96
2018-10-11T21:40:17.734Z,15.94
2018-10-11T21:42:29.890Z,15.88
2018-10-11T21:44:42.108Z,15.83
2018-10-11T21:46:54.367Z,15.84
2018-10-11T21:49:06.620Z,15.84
2018-10-11T21:51:18.815Z,15.87
2018-10-11T21:53:31.150Z,15.87
2018-10-11T21:55:43.383Z,15.83
2018-10-11T21:57:55.772Z,15.78
2018-10-11T22:00:08.090Z,15.76
2018-10-11T22:02:20.275Z,15.73
2018-10-11T22:04:32.512Z,15.66
2018-10-11T22:06:44.778Z,15.64
2018-10-11T22:08:56.956Z,15.63
2018-10-11T22:11:09.728Z,15.64
2018-10-11T22:13:21.977Z,15.61
2018-10-11T22:15:34.223Z,15.55
2018-10-11T22:17:46.453Z,15.48
2018-10-11T22:19:58.721Z,15.50
2018-10-11T22:22:11.031Z,15.50
2018-10-11T22:24:23.347Z,15.50
2018-10-11T22:26:35.667Z,15.50
2018-10-11T22:28:47.926Z,15.52
2018-10-11T22:31:00.151Z,15.48
2018-10-11T22:33:12.381Z,15.44
2018-10-11T22:35:24.623Z,15.44
2018-10-11T22:37:36.859Z,15.42
2018-10-11T22:39:49.107Z,15.39
2018-10-11T22:42:01.336Z,15.41
2018-10-11T22:44:13.607Z,15.42
2018-10-11T22:46:25.897Z,15.43
2018-10-11T22:48:38.128Z,15.43
2018-10-11T22:50:50.368Z,15.45
2018-10-11T22:53:02.602Z,15.45
2018-10-11T22:55:14.839Z,15.41
2018-10-11T22:57:27.092Z,15.43
2018-10-11T22:59:39.443Z,15.44
2018-10-11T23:01:51.700Z,15.46
2018-10-11T23:04:03.948Z,15.51
2018-10-11T23:06:16.220Z,15.53
2018-10-11T23:08:28.513Z,15.55
2018-10-11T23:10:40.748Z,15.60
2018-10-11T23:12:52.960Z,15.61
2018-10-11T23:15:05.281Z,15.60
2018-10-11T23:17:17.528Z,15.64
2018-10-11T23:19:29.771Z,15.72
2018-10-11T23:21:42.011Z,15.77
2018-10-11T23:23:54.218Z,15.83
2018-10-11T23:26:06.546Z,15.87
2018-10-11T23:28:18.763Z,15.89
2018-10-11T23:30:30.954Z,15.91
2018-10-11T23:32:43.197Z,15.96
2018-10-11T23:34:55.386Z,15.98
2018-10-11T23:37:07.931Z,15.99
2018-10-11T23:39:20.168Z,16.00
2018-10-11T23:41:32.429Z,16.00
2018-10-11T23:43:44.669Z,15.93
2018-10-11T23:45:56.900Z,15.90
2018-10-11T23:48:09.072Z,15.91
2018-10-11T23:50:21.312Z,15.95
2018-10-11T23:52:33.514Z,15.99
2018-10-11T23:54:45.741Z,16.03
2018-10-11T23:56:57.968Z,16.09
2018-10-11T23:59:10.166Z,16.09
